createdAt,value
2023-03-06T00:01:11.564Z,22.20
2023-03-06T00:04:06.104Z,22.20
2023-03-06T00:07:00.358Z,22.20
2023-03-06T00:09:54.763Z,22.20
2023-03-06T00:12:49.154Z,22.20
2023-03-06T00:15:43.482Z,22.20
2023-03-06T00:18:37.781Z,22.10
2023-03-06T00:21:32.052Z,22.00
2023-03-06T00:24:26.373Z,22.00
2023-03-06T00:27:20.603Z,21.90
2023-03-06T00:30:18.932Z,21.70
2023-03-06T00:33:13.537Z,21.60
2023-03-06T00:36:09.126Z,21.60
2023-03-06T00:39:03.942Z,21.60
2023-03-06T00:41:58.717Z,21.60
2023-03-06T00:44:53.524Z,21.70
2023-03-06T00:47:48.267Z,21.80
2023-03-06T00:50:42.996Z,22.00
2023-03-06T00:53:37.801Z,22.20
2023-03-06T00:56:32.578Z,22.40
2023-03-06T00:59:29.042Z,22.60
2023-03-06T01:02:24.317Z,22.60
2023-03-06T01:05:19.268Z,22.70
2023-03-06T01:08:13.492Z,22.80
2023-03-06T01:11:07.990Z,22.80
2023-03-06T01:14:02.448Z,22.80
2023-03-06T01:16:56.910Z,22.90
2023-03-06T01:19:51.303Z,22.80
2023-03-06T01:22:45.819Z,22.80
2023-03-06T01:25:40.061Z,22.70
2023-03-06T01:28:36.350Z,22.60
2023-03-06T01:31:31.064Z,22.40
2023-03-06T01:34:25.350Z,22.20
2023-03-06T01:37:19.636Z,22.10
2023-03-06T01:40:14.826Z,21.90
2023-03-06T01:43:32.023Z,21.90
2023-03-06T01:46:29.975Z,21.80
2023-03-06T01:49:26.392Z,21.70
2023-03-06T01:52:24.918Z,21.80
2023-03-06T01:55:24.250Z,21.90
2023-03-06T01:58:20.605Z,22.00
2023-03-06T02:01:17.292Z,22.10
2023-03-06T02:04:13.146Z,22.20
2023-03-06T02:07:09.178Z,22.30
2023-03-06T02:10:03.607Z,22.40
2023-03-06T02:12:58.056Z,22.60
2023-03-06T02:15:52.333Z,22.80
2023-03-06T02:18:48.675Z,22.90
2023-03-06T02:21:43.016Z,22.90
2023-03-06T02:24:46.412Z,23.00
2023-03-06T02:27:40.777Z,23.00
2023-03-06T02:30:35.194Z,23.10
2023-03-06T02:33:31.246Z,23.10
2023-03-06T02:36:25.591Z,23.20
2023-03-06T02:39:25.129Z,23.40
2023-03-06T02:42:25.829Z,23.50
2023-03-06T02:45:27.621Z,23.60
2023-03-06T02:48:22.807Z,23.70
2023-03-06T02:51:17.163Z,23.70
2023-03-06T02:54:12.198Z,23.60
2023-03-06T02:57:06.768Z,23.60
2023-03-06T03:00:01.063Z,23.70
2023-03-06T03:02:55.778Z,23.70
2023-03-06T03:05:50.093Z,23.80
2023-03-06T03:08:44.472Z,23.80
2023-03-06T03:11:38.921Z,23.60
2023-03-06T03:14:33.190Z,23.60
2023-03-06T03:17:27.569Z,23.50
2023-03-06T03:20:24.373Z,23.40
2023-03-06T03:23:18.672Z,23.50
2023-03-06T03:26:19.936Z,23.50
2023-03-06T03:29:16.502Z,23.50
2023-03-06T03:32:11.203Z,23.50
2023-03-06T03:35:06.842Z,23.60
2023-03-06T03:38:01.323Z,23.60
2023-03-06T03:40:55.735Z,23.70
2023-03-06T03:43:50.310Z,23.90
2023-03-06T03:46:44.820Z,24.00
2023-03-06T03:49:39.136Z,24.10
2023-03-06T03:52:33.495Z,24.20
2023-03-06T03:55:27.904Z,24.10
2023-03-06T03:58:22.121Z,24.20
2023-03-06T04:01:16.314Z,24.20
2023-03-06T04:04:10.635Z,24.30
2023-03-06T04:07:05.629Z,24.30
2023-03-06T04:09:59.926Z,24.40
2023-03-06T04:12:54.110Z,24.50
2023-03-06T04:15:51.849Z,24.50
2023-03-06T04:18:46.083Z,24.50
2023-03-06T04:21:40.360Z,24.70
2023-03-06T04:24:34.693Z,24.80
2023-03-06T04:27:28.998Z,25.00
2023-03-06T04:30:23.286Z,25.00
2023-03-06T04:33:17.648Z,25.10
2023-03-06T04:36:32.816Z,25.10
2023-03-06T04:39:27.110Z,25.20
2023-03-06T04:42:21.464Z,25.20
2023-03-06T04:45:16.588Z,25.10
2023-03-06T04:48:11.844Z,25.20
2023-03-06T04:51:06.351Z,25.20
2023-03-06T04:54:00.650Z,25.30
2023-03-06T04:56:54.941Z,25.30
2023-03-06T04:59:50.836Z,25.20
2023-03-06T05:02:46.192Z,25.30
2023-03-06T05:05:40.443Z,25.20
2023-03-06T05:08:34.791Z,25.10
2023-03-06T05:11:29.115Z,25.10
2023-03-06T05:14:23.411Z,25.00
2023-03-06T05:17:17.608Z,25.00
2023-03-06T05:20:15.112Z,25.00
2023-03-06T05:23:09.355Z,25.10
2023-03-06T05:26:06.763Z,25.20
2023-03-06T05:29:00.978Z,25.30
2023-03-06T05:31:55.264Z,25.30
2023-03-06T05:34:50.606Z,25.20
2023-03-06T05:37:44.967Z,25.30
2023-03-06T05:40:43.100Z,25.50
2023-03-06T05:43:37.351Z,25.50
2023-03-06T05:46:31.630Z,25.50
2023-03-06T05:49:25.958Z,25.70
2023-03-06T05:52:20.266Z,25.70
2023-03-06T05:55:15.061Z,25.80
2023-03-06T05:58:09.338Z,25.80
2023-03-06T06:01:17.420Z,25.90
2023-03-06T06:04:12.743Z,25.70
2023-03-06T06:07:07.566Z,25.60
2023-03-06T06:10:03.645Z,25.50
2023-03-06T06:12:58.246Z,25.50
2023-03-06T06:15:52.512Z,25.40
2023-03-06T06:18:47.457Z,25.30
2023-03-06T06:21:41.672Z,25.30
2023-03-06T06:24:36.074Z,25.10
2023-03-06T06:27:30.248Z,25.10
2023-03-06T06:30:25.513Z,25.00
2023-03-06T06:33:19.736Z,24.80
2023-03-06T06:36:21.956Z,24.70
2023-03-06T06:39:19.224Z,24.70
2023-03-06T06:42:30.476Z,24.70
2023-03-06T06:45:27.746Z,24.70
2023-03-06T06:48:21.982Z,24.70
2023-03-06T06:51:16.208Z,24.70
2023-03-06T06:54:11.763Z,24.70
2023-03-06T06:57:06.179Z,24.80
2023-03-06T07:00:00.417Z,24.80
2023-03-06T07:02:54.633Z,24.80
2023-03-06T07:05:57.309Z,24.80
2023-03-06T07:08:51.602Z,24.70
2023-03-06T07:11:45.970Z,24.70
2023-03-06T07:14:42.611Z,24.70
2023-03-06T07:17:36.921Z,24.60
2023-03-06T07:20:33.121Z,24.50
2023-03-06T07:23:27.905Z,24.50
2023-03-06T07:26:22.187Z,24.50
2023-03-06T07:29:17.359Z,24.50
2023-03-06T07:32:12.596Z,24.50
2023-03-06T07:35:19.860Z,24.50
2023-03-06T07:38:15.590Z,24.50
2023-03-06T07:41:14.570Z,24.40
2023-03-06T07:44:09.035Z,24.30
2023-03-06T07:47:04.719Z,24.20
2023-03-06T07:49:59.984Z,24.10
2023-03-06T07:52:55.421Z,24.00
2023-03-06T07:55:49.913Z,24.00
2023-03-06T07:58:46.478Z,23.80
2023-03-06T08:01:41.444Z,23.50
2023-03-06T08:04:36.634Z,23.30
2023-03-06T08:07:32.329Z,23.20
2023-03-06T08:10:26.721Z,23.10
2023-03-06T08:13:21.135Z,22.90
2023-03-06T08:16:15.622Z,22.80
2023-03-06T08:19:10.007Z,22.80
2023-03-06T08:22:05.544Z,22.80
2023-03-06T08:24:59.813Z,22.80
2023-03-06T08:27:54.589Z,22.90
2023-03-06T08:30:49.112Z,22.90
2023-03-06T08:33:44.883Z,23.00
2023-03-06T08:36:39.990Z,23.00
2023-03-06T08:39:34.594Z,23.00
2023-03-06T08:42:29.014Z,22.90
2023-03-06T08:45:23.648Z,22.90
2023-03-06T08:48:17.945Z,22.90
2023-03-06T08:51:13.216Z,22.80
2023-03-06T08:54:07.827Z,22.90
2023-03-06T08:57:02.198Z,22.80
2023-03-06T08:59:57.997Z,22.80
2023-03-06T09:02:52.375Z,22.80
2023-03-06T09:05:46.711Z,22.80
2023-03-06T09:08:44.284Z,22.80
2023-03-06T09:11:39.544Z,22.80
2023-03-06T09:14:34.222Z,22.70
2023-03-06T09:17:28.484Z,22.70
2023-03-06T09:20:23.607Z,22.60
2023-03-06T09:23:17.840Z,22.60
2023-03-06T09:26:13.661Z,22.50
2023-03-06T09:29:07.987Z,22.50
2023-03-06T09:32:02.337Z,22.40
2023-03-06T09:34:56.811Z,22.40
2023-03-06T09:37:51.044Z,22.40
2023-03-06T09:41:03.200Z,22.30
2023-03-06T09:44:15.873Z,22.30
2023-03-06T09:47:34.849Z,22.20
2023-03-06T09:50:32.194Z,22.20
2023-03-06T09:53:44.445Z,22.20
2023-03-06T09:56:39.420Z,22.10
2023-03-06T09:59:34.864Z,22.10
2023-03-06T10:02:53.848Z,22.10
2023-03-06T10:06:40.344Z,22.10
2023-03-06T10:09:43.603Z,22.00
2023-03-06T10:12:46.675Z,22.00
2023-03-06T10:15:45.654Z,22.00
2023-03-06T10:18:41.224Z,22.00
2023-03-06T10:21:59.848Z,22.00
2023-03-06T10:25:17.901Z,22.00
2023-03-06T10:28:23.453Z,22.00
2023-03-06T10:31:29.177Z,22.10
2023-03-06T10:34:32.748Z,22.10
2023-03-06T10:37:32.538Z,22.10
2023-03-06T10:40:37.507Z,22.10
2023-03-06T10:43:33.455Z,22.20
2023-03-06T10:46:32.995Z,22.20
2023-03-06T10:49:38.328Z,22.20
2023-03-06T10:52:37.342Z,22.20
2023-03-06T10:55:34.028Z,22.10
2023-03-06T10:58:31.315Z,21.90
2023-03-06T11:01:25.067Z,21.90
2023-03-06T11:04:27.032Z,21.80
2023-03-06T11:07:27.927Z,21.70
2023-03-06T11:10:24.564Z,21.60
2023-03-06T11:13:26.164Z,21.40
2023-03-06T11:16:29.186Z,21.30
2023-03-06T11:19:29.348Z,21.30
2023-03-06T11:22:23.626Z,21.30
2023-03-06T11:25:20.455Z,21.30
2023-03-06T11:28:33.318Z,21.30
2023-03-06T11:31:55.105Z,21.30
2023-03-06T11:34:52.361Z,21.20
2023-03-06T11:37:54.373Z,21.00
2023-03-06T11:41:04.117Z,21.10
2023-03-06T11:44:35.238Z,21.10
2023-03-06T11:48:02.959Z,21.10
2023-03-06T11:51:12.388Z,21.20
2023-03-06T11:54:07.088Z,21.10
2023-03-06T11:57:11.466Z,21.10
2023-03-06T12:00:27.537Z,21.20
2023-03-06T12:03:45.358Z,21.10
2023-03-06T12:06:52.142Z,21.10
2023-03-06T12:09:49.326Z,21.20
2023-03-06T12:12:43.183Z,21.10
2023-03-06T12:16:14.551Z,21.10
2023-03-06T12:19:30.028Z,21.10
2023-03-06T12:23:02.345Z,21.00
2023-03-06T12:26:08.413Z,21.00
2023-03-06T12:29:18.863Z,20.90
2023-03-06T12:32:31.575Z,20.80
2023-03-06T12:36:06.584Z,20.80
2023-03-06T12:40:01.711Z,20.70
2023-03-06T12:43:38.908Z,20.70
2023-03-06T12:46:57.062Z,20.60
2023-03-06T12:49:58.160Z,20.50
2023-03-06T12:52:55.167Z,20.40
2023-03-06T12:55:52.275Z,20.40
2023-03-06T12:58:51.267Z,20.40
2023-03-06T13:02:01.225Z,20.40
2023-03-06T13:05:23.451Z,20.30
2023-03-06T13:08:54.536Z,20.30
2023-03-06T13:12:00.978Z,20.30
2023-03-06T13:14:57.714Z,20.20
2023-03-06T13:17:52.269Z,20.20
2023-03-06T13:20:47.320Z,20.20
2023-03-06T13:24:07.865Z,20.20
2023-03-06T13:27:03.596Z,20.20
2023-03-06T13:30:28.810Z,20.20
2023-03-06T13:33:31.176Z,20.00
2023-03-06T13:36:39.454Z,20.00
2023-03-06T13:39:56.503Z,20.00
2023-03-06T13:43:06.142Z,20.00
2023-03-06T13:46:26.099Z,20.00
2023-03-06T13:49:26.324Z,20.00
2023-03-06T13:52:38.646Z,20.00
2023-03-06T13:56:22.334Z,20.00
2023-03-06T13:59:34.975Z,20.00
2023-03-06T14:02:38.149Z,19.90
2023-03-06T14:05:47.585Z,19.90
2023-03-06T14:08:43.107Z,19.90
2023-03-06T14:11:39.110Z,19.90
2023-03-06T14:14:47.476Z,19.90
2023-03-06T14:17:59.478Z,20.00
2023-03-06T14:21:13.212Z,19.90
2023-03-06T14:24:07.994Z,19.90
2023-03-06T14:27:02.731Z,20.00
2023-03-06T14:29:37.050Z,19.90
2023-03-06T14:32:13.400Z,20.00
2023-03-06T14:35:08.360Z,20.00
2023-03-06T14:38:09.875Z,20.00
2023-03-06T14:41:06.430Z,20.00
2023-03-06T14:44:23.166Z,20.00
2023-03-06T14:47:27.286Z,20.00
2023-03-06T14:50:29.047Z,20.00
2023-03-06T14:53:33.730Z,20.00
2023-03-06T14:56:29.276Z,20.00
2023-03-06T14:59:28.180Z,20.00
2023-03-06T15:02:28.593Z,20.00
2023-03-06T15:05:31.976Z,20.00
2023-03-06T15:08:33.948Z,20.00
2023-03-06T15:11:28.183Z,20.00
2023-03-06T15:14:30.180Z,20.00
2023-03-06T15:17:29.785Z,19.90
2023-03-06T15:20:42.786Z,20.00
2023-03-06T15:23:42.944Z,19.90
2023-03-06T15:26:42.019Z,19.90
2023-03-06T15:29:39.640Z,19.90
2023-03-06T15:32:37.083Z,19.90
2023-03-06T15:35:37.880Z,19.80
2023-03-06T15:38:42.487Z,19.90
2023-03-06T15:41:39.479Z,20.00
2023-03-06T15:45:23.016Z,19.90
2023-03-06T15:48:19.841Z,19.80
2023-03-06T15:51:14.318Z,19.90
2023-03-06T15:54:12.173Z,19.90
2023-03-06T15:57:13.298Z,19.90
2023-03-06T16:00:26.383Z,19.80
2023-03-06T16:03:21.600Z,19.90
2023-03-06T16:06:24.788Z,20.00
2023-03-06T16:09:19.089Z,20.00
2023-03-06T16:12:21.897Z,20.00
2023-03-06T16:15:42.702Z,20.00
2023-03-06T16:18:36.912Z,20.00
2023-03-06T16:21:31.268Z,19.90
2023-03-06T16:24:27.346Z,19.90
2023-03-06T16:27:24.031Z,19.80
2023-03-06T16:30:22.119Z,19.80
2023-03-06T16:33:16.942Z,19.80
2023-03-06T16:36:24.260Z,19.80
2023-03-06T16:39:20.878Z,19.80
2023-03-06T16:42:17.690Z,19.80
2023-03-06T16:45:12.892Z,19.90
2023-03-06T16:48:08.443Z,19.90
2023-03-06T16:51:02.915Z,20.00
2023-03-06T16:53:57.160Z,20.00
2023-03-06T16:56:51.391Z,19.80
2023-03-06T16:59:45.681Z,19.80
2023-03-06T17:02:41.681Z,19.70
2023-03-06T17:05:37.488Z,19.70
2023-03-06T17:08:32.109Z,19.80
2023-03-06T17:11:26.384Z,19.80
2023-03-06T17:14:20.778Z,20.00
2023-03-06T17:17:15.498Z,20.00
2023-03-06T17:20:10.742Z,20.00
2023-03-06T17:23:05.014Z,20.00
2023-03-06T17:26:15.204Z,20.10
2023-03-06T17:29:10.694Z,19.90
2023-03-06T17:32:05.433Z,19.70
2023-03-06T17:34:59.819Z,19.70
2023-03-06T17:37:54.240Z,19.60
2023-03-06T17:40:48.570Z,19.60
2023-03-06T17:43:42.961Z,19.50
2023-03-06T17:46:37.283Z,19.60
2023-03-06T17:49:32.105Z,19.70
2023-03-06T17:52:26.371Z,19.70
2023-03-06T17:55:20.730Z,19.70
2023-03-06T17:58:14.972Z,19.60
2023-03-06T18:01:14.693Z,19.50
2023-03-06T18:04:08.951Z,19.40
2023-03-06T18:07:03.308Z,19.40
2023-03-06T18:09:57.827Z,19.50
2023-03-06T18:12:52.517Z,19.50
2023-03-06T18:15:46.700Z,19.50
2023-03-06T18:18:41.081Z,19.60
2023-03-06T18:21:35.337Z,19.60
2023-03-06T18:24:29.840Z,19.70
2023-03-06T18:27:24.796Z,19.70
2023-03-06T18:30:19.564Z,19.60
2023-03-06T18:33:14.140Z,19.50
2023-03-06T18:36:08.708Z,19.30
2023-03-06T18:39:04.916Z,19.30
2023-03-06T18:42:01.528Z,19.30
2023-03-06T18:44:55.721Z,19.30
2023-03-06T18:47:50.018Z,19.40
2023-03-06T18:50:44.315Z,19.40
2023-03-06T18:53:41.043Z,19.40
2023-03-06T18:56:36.158Z,19.30
2023-03-06T18:59:30.534Z,19.30
2023-03-06T19:02:24.854Z,19.30
2023-03-06T19:05:19.195Z,19.30
2023-03-06T19:08:13.996Z,19.30
2023-03-06T19:11:11.071Z,19.20
2023-03-06T19:14:05.339Z,19.20
2023-03-06T19:16:59.644Z,19.20
2023-03-06T19:19:53.925Z,19.20
2023-03-06T19:22:48.230Z,19.10
2023-03-06T19:25:42.489Z,19.20
2023-03-06T19:28:41.724Z,19.30
2023-03-06T19:31:35.959Z,19.30
2023-03-06T19:34:30.279Z,19.30
2023-03-06T19:37:24.611Z,19.40
2023-03-06T19:40:19.274Z,19.40
2023-03-06T19:43:13.551Z,19.40
2023-03-06T19:46:08.247Z,19.40
2023-03-06T19:49:12.851Z,19.40
2023-03-06T19:52:10.503Z,19.30
2023-03-06T19:55:04.852Z,19.30
2023-03-06T19:57:59.710Z,19.30
2023-03-06T20:00:53.999Z,19.20
2023-03-06T20:03:48.614Z,19.10
2023-03-06T20:06:42.906Z,19.00
2023-03-06T20:09:37.212Z,19.00
2023-03-06T20:12:31.713Z,19.10
2023-03-06T20:15:26.069Z,19.10
2023-03-06T20:18:20.299Z,19.20
2023-03-06T20:21:15.741Z,19.30
2023-03-06T20:24:17.742Z,19.30
2023-03-06T20:27:12.010Z,19.40
2023-03-06T20:30:08.077Z,19.30
2023-03-06T20:33:02.541Z,19.40
2023-03-06T20:35:56.834Z,19.40
2023-03-06T20:38:51.795Z,19.50
2023-03-06T20:41:47.986Z,19.50
2023-03-06T20:44:42.617Z,19.50
2023-03-06T20:47:36.986Z,19.50
2023-03-06T20:50:31.418Z,19.50
2023-03-06T20:53:25.703Z,19.40
2023-03-06T20:56:25.065Z,19.40
2023-03-06T20:59:19.662Z,19.40
2023-03-06T21:02:16.096Z,19.40
2023-03-06T21:05:10.837Z,19.40
2023-03-06T21:08:05.197Z,19.40
2023-03-06T21:11:02.592Z,19.40
2023-03-06T21:13:57.643Z,19.40
2023-03-06T21:16:51.940Z,19.40
2023-03-06T21:19:48.568Z,19.40
2023-03-06T21:22:42.734Z,19.40
2023-03-06T21:25:38.210Z,19.40
2023-03-06T21:28:33.134Z,19.50
2023-03-06T21:31:29.523Z,19.50
2023-03-06T21:34:23.895Z,19.40
2023-03-06T21:37:18.284Z,19.40
2023-03-06T21:40:13.586Z,19.50
2023-03-06T21:43:08.135Z,19.50
2023-03-06T21:46:02.436Z,19.50
2023-03-06T21:48:57.515Z,19.40
2023-03-06T21:51:51.820Z,19.40
2023-03-06T21:54:46.085Z,19.50
2023-03-06T21:57:40.300Z,19.50
2023-03-06T22:00:37.497Z,19.60
2023-03-06T22:03:32.241Z,19.70
2023-03-06T22:06:28.822Z,19.70
2023-03-06T22:09:23.135Z,19.70
2023-03-06T22:12:17.346Z,19.70
2023-03-06T22:15:12.198Z,19.70
2023-03-06T22:18:06.772Z,19.80
2023-03-06T22:21:01.107Z,19.80
2023-03-06T22:24:00.582Z,19.80
2023-03-06T22:26:55.812Z,19.80
2023-03-06T22:29:50.236Z,19.90
2023-03-06T22:32:44.543Z,19.80
2023-03-06T22:35:38.894Z,19.80
2023-03-06T22:38:36.903Z,19.80
2023-03-06T22:41:31.438Z,19.80
2023-03-06T22:44:25.954Z,19.80
2023-03-06T22:47:20.286Z,19.80
2023-03-06T22:50:14.482Z,19.80
2023-03-06T22:53:08.779Z,19.90
2023-03-06T22:56:05.568Z,19.90
2023-03-06T22:59:00.224Z,19.80
2023-03-06T23:01:54.587Z,19.80
2023-03-06T23:04:54.497Z,20.40
2023-03-06T23:07:48.797Z,21.40
2023-03-06T23:10:43.145Z,21.90
2023-03-06T23:13:38.028Z,22.20
2023-03-06T23:16:32.707Z,22.60
2023-03-06T23:19:27.938Z,22.90
2023-03-06T23:22:22.364Z,23.30
2023-03-06T23:25:16.822Z,23.40
2023-03-06T23:28:11.519Z,23.40
2023-03-06T23:31:14.000Z,23.30
2023-03-06T23:34:10.810Z,23.00
2023-03-06T23:37:05.080Z,22.80
2023-03-06T23:39:59.449Z,22.70
2023-03-06T23:42:53.673Z,22.60
2023-03-06T23:45:57.752Z,22.50
2023-03-06T23:48:51.981Z,22.40
2023-03-06T23:51:46.303Z,22.50
2023-03-06T23:54:40.603Z,22.40
2023-03-06T23:57:35.181Z,22.30
